createdAt,value
2023-01-13T00:00:04.266Z,98007.88
2023-01-13T00:02:39.036Z,98013.44
2023-01-13T00:05:07.256Z,98014.25
2023-01-13T00:07:34.650Z,98000.22
2023-01-13T00:10:02.011Z,98009.34
2023-01-13T00:12:29.381Z,98002.88
2023-01-13T00:14:57.051Z,97994.34
2023-01-13T00:17:24.372Z,98003.63
2023-01-13T00:19:51.711Z,98002.78
2023-01-13T00:22:19.096Z,97998.72
2023-01-13T00:24:46.582Z,97998.59
2023-01-13T00:27:13.946Z,97990.41
2023-01-13T00:29:41.258Z,97994.47
2023-01-13T00:32:08.589Z,97991.44
2023-01-13T00:34:35.910Z,97974.78
2023-01-13T00:37:03.264Z,97991.00
2023-01-13T00:39:30.567Z,97993.50
2023-01-13T00:42:23.969Z,97989.06
2023-01-13T00:44:51.285Z,97988.13
2023-01-13T00:47:18.887Z,97991.59
2023-01-13T00:49:46.202Z,97988.13
2023-01-13T00:52:13.558Z,97994.94
2023-01-13T00:54:40.881Z,97981.84
2023-01-13T00:57:08.433Z,97987.59
2023-01-13T00:59:35.762Z,97981.59
2023-01-13T01:02:03.256Z,97977.84
2023-01-13T01:04:30.940Z,97974.38
2023-01-13T01:06:58.357Z,97967.28
2023-01-13T01:09:32.536Z,97967.06
2023-01-13T01:12:00.552Z,97975.22
2023-01-13T01:14:28.086Z,97965.09
2023-01-13T01:16:55.532Z,97967.63
2023-01-13T01:19:23.528Z,97958.56
2023-01-13T01:21:50.949Z,97964.41
2023-01-13T01:24:18.317Z,97960.09
2023-01-13T01:26:45.729Z,97951.06
2023-01-13T01:29:15.239Z,97963.84
2023-01-13T01:31:42.724Z,97950.75
2023-01-13T01:34:10.249Z,97948.22
2023-01-13T01:36:38.780Z,97943.66
2023-01-13T01:39:06.852Z,97950.09
2023-01-13T01:41:35.424Z,97955.91
2023-01-13T01:44:43.554Z,97946.50
2023-01-13T01:47:13.742Z,97950.09
2023-01-13T01:49:41.871Z,97951.53
2023-01-13T01:52:17.091Z,97949.00
2023-01-13T01:54:58.615Z,97935.78
2023-01-13T01:57:53.968Z,97931.28
2023-01-13T02:00:21.887Z,97930.78
2023-01-13T02:02:50.451Z,97921.03
2023-01-13T02:05:18.115Z,97919.38
2023-01-13T02:07:47.822Z,97922.84
2023-01-13T02:10:18.304Z,97928.69
2023-01-13T02:12:46.251Z,97924.38
2023-01-13T02:15:15.655Z,97920.66
2023-01-13T02:18:01.924Z,97922.19
2023-01-13T02:21:01.865Z,97916.34
2023-01-13T02:23:59.801Z,97913.56
2023-01-13T02:26:58.181Z,97912.59
2023-01-13T02:30:05.793Z,97908.16
2023-01-13T02:33:08.547Z,97900.34
2023-01-13T02:35:47.312Z,97902.69
2023-01-13T02:38:16.605Z,97907.16
2023-01-13T02:41:25.823Z,97901.06
2023-01-13T02:44:10.388Z,97894.34
2023-01-13T02:47:16.482Z,97885.31
2023-01-13T02:49:56.446Z,97889.88
2023-01-13T02:52:32.614Z,97882.06
2023-01-13T02:55:05.684Z,97877.88
2023-01-13T02:57:35.041Z,97871.38
2023-01-13T03:00:04.827Z,97874.97
2023-01-13T03:02:32.287Z,97878.88
2023-01-13T03:05:00.363Z,97869.84
2023-01-13T03:07:46.145Z,97855.94
2023-01-13T03:10:34.643Z,97872.16
2023-01-13T03:13:03.896Z,97862.97
2023-01-13T03:15:54.954Z,97871.84
2023-01-13T03:18:44.183Z,97864.31
2023-01-13T03:21:17.261Z,97870.19
2023-01-13T03:24:04.467Z,97871.00
2023-01-13T03:26:49.558Z,97868.09
2023-01-13T03:29:40.847Z,97862.72
2023-01-13T03:32:15.544Z,97853.94
2023-01-13T03:35:21.234Z,97844.44
2023-01-13T03:37:52.609Z,97855.78
2023-01-13T03:40:25.133Z,97851.22
2023-01-13T03:43:21.186Z,97839.16
2023-01-13T03:45:53.415Z,97847.91
2023-01-13T03:48:21.240Z,97849.84
2023-01-13T03:50:50.886Z,97842.63
2023-01-13T03:53:25.341Z,97838.75
2023-01-13T03:55:58.059Z,97845.72
2023-01-13T03:58:31.271Z,97842.94
2023-01-13T04:01:16.540Z,97836.56
2023-01-13T04:04:02.050Z,97843.06
2023-01-13T04:06:55.179Z,97831.69
2023-01-13T04:09:47.904Z,97829.28
2023-01-13T04:12:51.759Z,97832.47
2023-01-13T04:15:27.442Z,97827.69
2023-01-13T04:17:55.396Z,97833.94
2023-01-13T04:20:22.359Z,97830.31
2023-01-13T04:22:49.357Z,97833.94
2023-01-13T04:25:16.376Z,97825.31
2023-01-13T04:27:43.439Z,97837.81
2023-01-13T04:30:11.327Z,97822.41
2023-01-13T04:32:38.357Z,97817.66
2023-01-13T04:35:05.744Z,97826.94
2023-01-13T04:37:33.385Z,97824.69
2023-01-13T04:40:00.256Z,97835.97
2023-01-13T04:42:27.382Z,97825.38
2023-01-13T04:44:54.471Z,97813.84
2023-01-13T04:47:21.412Z,97824.84
2023-01-13T04:49:48.363Z,97826.47
2023-01-13T04:52:15.454Z,97818.66
2023-01-13T04:54:42.398Z,97816.94
2023-01-13T04:57:09.363Z,97811.94
2023-01-13T04:59:36.324Z,97815.28
2023-01-13T05:02:03.287Z,97818.91
2023-01-13T05:04:30.375Z,97824.03
2023-01-13T05:06:58.743Z,97811.84
2023-01-13T05:09:25.777Z,97817.25
2023-01-13T05:12:11.444Z,97818.78
2023-01-13T05:14:56.856Z,97809.78
2023-01-13T05:17:25.520Z,97826.91
2023-01-13T05:19:52.563Z,97820.97
2023-01-13T05:22:37.979Z,97823.44
2023-01-13T05:25:24.397Z,97828.31
2023-01-13T05:27:56.756Z,97820.97
2023-01-13T05:30:30.547Z,97824.44
2023-01-13T05:32:57.778Z,97832.75
2023-01-13T05:35:25.376Z,97831.94
2023-01-13T05:37:52.430Z,97831.94
2023-01-13T05:40:38.170Z,97846.16
2023-01-13T05:43:20.610Z,97822.50
2023-01-13T05:45:57.343Z,97821.94
2023-01-13T05:48:42.331Z,97821.38
2023-01-13T05:51:11.973Z,97821.22
2023-01-13T05:53:41.027Z,97815.28
2023-01-13T05:56:09.556Z,97818.75
2023-01-13T05:58:37.061Z,97814.88
2023-01-13T06:01:07.925Z,97821.94
2023-01-13T06:03:36.064Z,97821.69
2023-01-13T06:06:04.268Z,97820.16
2023-01-13T06:08:32.342Z,97801.09
2023-01-13T06:10:59.809Z,97816.22
2023-01-13T06:13:27.254Z,97811.94
2023-01-13T06:15:58.546Z,97820.56
2023-01-13T06:18:26.573Z,97825.41
2023-01-13T06:20:53.795Z,97818.03
2023-01-13T06:23:20.862Z,97827.66
2023-01-13T06:26:08.383Z,97818.47
2023-01-13T06:28:35.608Z,97823.63
2023-01-13T06:31:07.018Z,97826.97
2023-01-13T06:33:39.139Z,97820.00
2023-01-13T06:36:15.300Z,97813.06
2023-01-13T06:38:47.921Z,97808.09
2023-01-13T06:41:15.585Z,97821.44
2023-01-13T06:43:42.617Z,97820.75
2023-01-13T06:46:09.548Z,97826.41
2023-01-13T06:48:36.607Z,97815.16
2023-01-13T06:51:04.816Z,97827.22
2023-01-13T06:53:31.904Z,97823.63
2023-01-13T06:55:58.958Z,97814.31
2023-01-13T06:58:26.009Z,97828.53
2023-01-13T07:00:53.719Z,97819.59
2023-01-13T07:03:21.439Z,97821.97
2023-01-13T07:05:55.821Z,97812.38
2023-01-13T07:08:24.123Z,97812.22
2023-01-13T07:10:51.529Z,97804.84
2023-01-13T07:13:37.568Z,97814.00
2023-01-13T07:16:07.407Z,97809.59
2023-01-13T07:18:35.368Z,97803.91
2023-01-13T07:21:09.128Z,97808.72
2023-01-13T07:23:40.244Z,97815.28
2023-01-13T07:26:09.636Z,97815.44
2023-01-13T07:28:37.532Z,97815.28
2023-01-13T07:31:05.833Z,97820.97
2023-01-13T07:33:33.341Z,97817.91
2023-01-13T07:36:05.325Z,97806.38
2023-01-13T07:38:34.201Z,97814.44
2023-01-13T07:41:21.980Z,97817.91
2023-01-13T07:43:49.482Z,97817.63
2023-01-13T07:46:16.875Z,97818.75
2023-01-13T07:48:44.420Z,97816.66
2023-01-13T07:51:12.979Z,97813.47
2023-01-13T07:53:40.082Z,97813.88
2023-01-13T07:56:08.407Z,97817.53
2023-01-13T07:58:36.851Z,97818.88
2023-01-13T08:01:14.341Z,97796.50
2023-01-13T08:03:41.549Z,97819.47
2023-01-13T08:06:10.358Z,97831.72
2023-01-13T08:08:38.601Z,97818.25
2023-01-13T08:11:08.209Z,97814.50
2023-01-13T08:13:35.960Z,97811.56
2023-01-13T08:16:09.304Z,97812.28
2023-01-13T08:18:37.856Z,97825.06
2023-01-13T08:21:14.911Z,97831.72
2023-01-13T08:23:44.487Z,97837.16
2023-01-13T08:26:18.027Z,97841.78
2023-01-13T08:28:45.854Z,97831.00
2023-01-13T08:31:16.532Z,97840.25
2023-01-13T08:33:43.886Z,97830.47
2023-01-13T08:36:12.753Z,97831.13
2023-01-13T08:38:40.712Z,97841.09
2023-01-13T08:41:14.120Z,97852.47
2023-01-13T08:43:41.600Z,97847.59
2023-01-13T08:46:08.787Z,97850.25
2023-01-13T08:48:35.959Z,97859.19
2023-01-13T08:51:07.237Z,97859.84
2023-01-13T08:53:34.313Z,97854.22
2023-01-13T08:56:01.369Z,97862.50
2023-01-13T08:58:28.519Z,97870.41
2023-01-13T09:00:55.627Z,97883.75
2023-01-13T09:03:22.879Z,97884.72
2023-01-13T09:05:49.920Z,97893.97
2023-01-13T09:08:16.946Z,97912.03
2023-01-13T09:10:44.087Z,97926.56
2023-01-13T09:13:14.101Z,97933.34
2023-01-13T09:15:44.937Z,97946.72
2023-01-13T09:18:12.743Z,97946.56
2023-01-13T09:20:39.927Z,97941.97
2023-01-13T09:23:10.010Z,97951.19
2023-01-13T09:25:37.534Z,97956.53
2023-01-13T09:28:08.628Z,97970.75
2023-01-13T09:30:37.574Z,97960.75
2023-01-13T09:33:23.002Z,97962.44
2023-01-13T09:35:50.155Z,97977.66
2023-01-13T09:38:17.115Z,97967.63
2023-01-13T09:40:44.376Z,97969.44
2023-01-13T09:43:39.859Z,97973.28
2023-01-13T09:46:47.140Z,97965.75
2023-01-13T09:49:20.902Z,97966.00
2023-01-13T09:52:15.181Z,97966.03
2023-01-13T09:54:52.004Z,97976.34
2023-01-13T09:57:21.510Z,97979.31
2023-01-13T09:59:48.954Z,97975.59
2023-01-13T10:02:55.099Z,97973.19
2023-01-13T10:05:41.397Z,97974.28
2023-01-13T10:08:15.988Z,97972.28
2023-01-13T10:10:49.366Z,97968.31
2023-01-13T10:13:22.031Z,97955.88
2023-01-13T10:15:56.983Z,97955.41
2023-01-13T10:18:50.125Z,97953.84
2023-01-13T10:21:58.510Z,97956.13
2023-01-13T10:24:59.012Z,97968.84
2023-01-13T10:27:38.877Z,97969.19
2023-01-13T10:30:22.453Z,97974.44
2023-01-13T10:33:01.567Z,97963.78
2023-01-13T10:35:56.998Z,97968.81
2023-01-13T10:38:34.467Z,97957.19
2023-01-13T10:41:24.387Z,97964.84
2023-01-13T10:44:04.248Z,97976.94
2023-01-13T10:46:34.929Z,97974.44
2023-01-13T10:49:39.903Z,97978.75
2023-01-13T10:52:28.427Z,97976.00
2023-01-13T10:54:56.715Z,97976.97
2023-01-13T10:57:27.016Z,97981.03
2023-01-13T10:59:55.255Z,97977.81
2023-01-13T11:02:36.090Z,97982.28
2023-01-13T11:05:24.900Z,97983.22
2023-01-13T11:07:54.931Z,97987.28
2023-01-13T11:10:28.233Z,97986.59
2023-01-13T11:13:16.803Z,97982.72
2023-01-13T11:16:14.527Z,97986.53
2023-01-13T11:19:11.920Z,97982.81
2023-01-13T11:21:54.807Z,98006.44
2023-01-13T11:24:36.810Z,98003.66
2023-01-13T11:27:12.647Z,97996.69
2023-01-13T11:29:59.136Z,98005.44
2023-01-13T11:32:31.401Z,97997.50
2023-01-13T11:35:05.326Z,98006.09
2023-01-13T11:37:37.768Z,98011.69
2023-01-13T11:40:07.030Z,98017.28
2023-01-13T11:43:01.581Z,98024.84
2023-01-13T11:45:58.490Z,98028.19
2023-01-13T11:48:31.950Z,98020.91
2023-01-13T11:51:14.113Z,98018.66
2023-01-13T11:54:16.513Z,98033.81
2023-01-13T11:57:02.076Z,98025.81
2023-01-13T11:59:36.947Z,98029.91
2023-01-13T12:02:47.557Z,98036.38
2023-01-13T12:05:43.002Z,98034.25
2023-01-13T12:08:16.799Z,98031.63
2023-01-13T12:10:49.660Z,98025.88
2023-01-13T12:13:46.050Z,98028.56
2023-01-13T12:16:30.346Z,98007.63
2023-01-13T12:19:11.028Z,98009.06
2023-01-13T12:22:12.353Z,98015.53
2023-01-13T12:24:55.132Z,98008.94
2023-01-13T12:27:47.400Z,98024.75
2023-01-13T12:30:31.991Z,98029.13
2023-01-13T12:33:35.397Z,98020.00
2023-01-13T12:36:16.044Z,98029.72
2023-01-13T12:38:55.008Z,98028.03
2023-01-13T12:42:16.336Z,98026.81
2023-01-13T12:45:11.349Z,98032.44
2023-01-13T12:47:44.256Z,98037.34
2023-01-13T12:50:26.041Z,98054.00
2023-01-13T12:52:57.350Z,98051.31
2023-01-13T12:55:34.560Z,98057.09
2023-01-13T12:58:10.683Z,98067.13
2023-01-13T13:00:40.633Z,98064.84
2023-01-13T13:03:18.597Z,98072.06
2023-01-13T13:06:00.313Z,98058.88
2023-01-13T13:08:48.845Z,98073.00
2023-01-13T13:11:41.276Z,98072.13
2023-01-13T13:14:13.961Z,98082.03
2023-01-13T13:16:52.325Z,98080.28
2023-01-13T13:19:20.032Z,98081.25
2023-01-13T13:22:11.941Z,98062.59
2023-01-13T13:24:40.959Z,98060.06
2023-01-13T13:27:38.115Z,98069.56
2023-01-13T13:30:18.403Z,98070.94
2023-01-13T13:33:21.600Z,98075.47
2023-01-13T13:36:26.720Z,98095.22
2023-01-13T13:39:34.651Z,98102.56
2023-01-13T13:42:31.064Z,98109.69
2023-01-13T13:45:19.336Z,98117.19
2023-01-13T13:47:46.424Z,98114.09
2023-01-13T13:50:20.536Z,98124.63
2023-01-13T13:52:59.193Z,98112.59
2023-01-13T13:55:28.805Z,98119.34
2023-01-13T13:57:57.824Z,98122.47
2023-01-13T14:00:33.996Z,98132.78
2023-01-13T14:03:38.992Z,98148.50
2023-01-13T14:06:16.523Z,98129.03
2023-01-13T14:08:50.421Z,98154.75
2023-01-13T14:11:27.967Z,98146.13
2023-01-13T14:14:17.160Z,98155.31
2023-01-13T14:16:44.128Z,98163.78
2023-01-13T14:19:40.259Z,98178.53
2023-01-13T14:22:16.290Z,98183.78
2023-01-13T14:24:49.330Z,98185.19
2023-01-13T14:27:18.913Z,98197.72
2023-01-13T14:29:46.149Z,98203.81
2023-01-13T14:32:21.285Z,98196.34
2023-01-13T14:34:48.518Z,98203.06
2023-01-13T14:37:25.520Z,98199.16
2023-01-13T14:39:52.448Z,98202.72
2023-01-13T14:42:20.760Z,98195.75
2023-01-13T14:44:50.700Z,98187.00
2023-01-13T14:47:26.821Z,98194.81
2023-01-13T14:50:07.539Z,98205.34
2023-01-13T14:52:54.671Z,98203.91
2023-01-13T14:55:30.567Z,98202.81
2023-01-13T14:58:20.186Z,98199.78
2023-01-13T15:00:47.558Z,98208.75
2023-01-13T15:03:17.457Z,98208.56
2023-01-13T15:05:52.595Z,98224.50
2023-01-13T15:08:27.376Z,98237.34
2023-01-13T15:11:14.644Z,98242.56
2023-01-13T15:13:56.819Z,98262.25
2023-01-13T15:16:26.330Z,98261.09
2023-01-13T15:18:55.446Z,98264.88
2023-01-13T15:21:23.311Z,98270.59
2023-01-13T15:23:50.391Z,98278.66
2023-01-13T15:26:23.679Z,98282.06
2023-01-13T15:28:52.353Z,98280.47
2023-01-13T15:31:20.315Z,98290.78
2023-01-13T15:33:47.701Z,98283.91
2023-01-13T15:36:29.855Z,98286.50
2023-01-13T15:38:58.355Z,98283.75
2023-01-13T15:41:44.592Z,98288.34
2023-01-13T15:44:32.763Z,98285.44
2023-01-13T15:47:03.713Z,98288.66
2023-01-13T15:49:39.021Z,98281.78
2023-01-13T15:52:21.446Z,98289.28
2023-01-13T15:54:52.405Z,98284.03
2023-01-13T15:57:27.288Z,98292.06
2023-01-13T16:00:02.023Z,98302.31
2023-01-13T16:02:33.851Z,98289.75
2023-01-13T16:05:00.883Z,98304.38
2023-01-13T16:07:28.353Z,98302.72
2023-01-13T16:09:55.383Z,98298.50
2023-01-13T16:12:22.387Z,98303.00
2023-01-13T16:14:49.268Z,98316.66
2023-01-13T16:17:22.540Z,98318.44
2023-01-13T16:19:49.919Z,98309.28
2023-01-13T16:22:17.733Z,98310.38
2023-01-13T16:24:44.720Z,98308.31
2023-01-13T16:27:17.790Z,98319.22
2023-01-13T16:29:45.822Z,98323.59
2023-01-13T16:32:12.847Z,98319.63
2023-01-13T16:34:40.358Z,98321.91
2023-01-13T16:37:19.890Z,98330.69
2023-01-13T16:39:47.658Z,98323.09
2023-01-13T16:42:15.065Z,98341.47
2023-01-13T16:44:42.146Z,98349.06
2023-01-13T16:47:17.449Z,98351.91
2023-01-13T16:49:45.591Z,98354.72
2023-01-13T16:52:12.666Z,98357.91
2023-01-13T16:54:39.671Z,98365.69
2023-01-13T16:57:07.833Z,98365.69
2023-01-13T16:59:34.814Z,98371.28
2023-01-13T17:02:02.209Z,98371.97
2023-01-13T17:04:29.344Z,98386.94
2023-01-13T17:07:06.361Z,98375.22
2023-01-13T17:09:33.366Z,98393.28
2023-01-13T17:12:00.954Z,98401.03
2023-01-13T17:14:28.005Z,98398.94
2023-01-13T17:16:58.126Z,98396.16
2023-01-13T17:19:25.803Z,98399.09
2023-01-13T17:21:53.049Z,98398.16
2023-01-13T17:24:20.582Z,98406.31
2023-01-13T17:26:50.413Z,98412.13
2023-01-13T17:29:22.058Z,98419.91
2023-01-13T17:31:50.720Z,98413.91
2023-01-13T17:34:18.283Z,98411.00
2023-01-13T17:36:45.427Z,98430.00
2023-01-13T17:39:17.724Z,98423.94
2023-01-13T17:41:45.807Z,98424.78
2023-01-13T17:44:18.838Z,98423.94
2023-01-13T17:46:46.557Z,98428.13
2023-01-13T17:49:16.615Z,98417.97
2023-01-13T17:51:44.862Z,98426.78
2023-01-13T17:54:12.435Z,98423.16
2023-01-13T17:56:41.162Z,98424.47
2023-01-13T17:59:12.447Z,98422.69
2023-01-13T18:01:40.207Z,98431.03
2023-01-13T18:04:07.512Z,98423.84
2023-01-13T18:06:34.791Z,98436.69
2023-01-13T18:09:01.859Z,98447.28
2023-01-13T18:11:28.858Z,98452.81
2023-01-13T18:14:00.247Z,98455.63
2023-01-13T18:16:29.706Z,98459.19
2023-01-13T18:19:18.646Z,98480.28
2023-01-13T18:22:06.080Z,98483.66
2023-01-13T18:24:51.792Z,98485.63
2023-01-13T18:27:27.283Z,98491.84
2023-01-13T18:29:56.968Z,98497.19
2023-01-13T18:32:30.448Z,98490.25
2023-01-13T18:35:05.668Z,98493.78
2023-01-13T18:37:36.064Z,98502.03
2023-01-13T18:40:05.061Z,98508.25
2023-01-13T18:42:50.751Z,98501.19
2023-01-13T18:45:24.769Z,98515.00
2023-01-13T18:47:53.488Z,98506.09
2023-01-13T18:50:21.224Z,98513.03
2023-01-13T18:52:48.301Z,98527.13
2023-01-13T18:55:15.604Z,98531.81
2023-01-13T18:57:42.640Z,98537.44
2023-01-13T19:00:17.200Z,98540.69
2023-01-13T19:02:47.048Z,98540.53
2023-01-13T19:05:14.481Z,98546.41
2023-01-13T19:07:43.475Z,98547.81
2023-01-13T19:10:12.972Z,98536.94
2023-01-13T19:12:39.994Z,98540.88
2023-01-13T19:15:07.859Z,98550.56
2023-01-13T19:17:35.871Z,98547.44
2023-01-13T19:20:05.151Z,98560.59
2023-01-13T19:22:34.669Z,98565.75
2023-01-13T19:25:03.037Z,98562.66
2023-01-13T19:27:31.008Z,98568.38
2023-01-13T19:30:00.258Z,98576.28
2023-01-13T19:32:28.010Z,98578.25
2023-01-13T19:34:59.084Z,98577.97
2023-01-13T19:37:30.182Z,98581.34
2023-01-13T19:40:00.584Z,98587.84
2023-01-13T19:42:47.130Z,98586.13
2023-01-13T19:45:26.506Z,98588.75
2023-01-13T19:47:54.724Z,98595.13
2023-01-13T19:50:21.801Z,98605.66
2023-01-13T19:52:48.877Z,98616.00
2023-01-13T19:55:15.839Z,98614.19
2023-01-13T19:57:43.473Z,98612.59
2023-01-13T20:00:12.295Z,98620.00
2023-01-13T20:02:47.975Z,98625.38
2023-01-13T20:05:20.877Z,98635.59
2023-01-13T20:07:49.971Z,98633.59
2023-01-13T20:10:19.597Z,98637.06
2023-01-13T20:12:46.576Z,98642.84
2023-01-13T20:15:13.957Z,98635.41
2023-01-13T20:17:41.560Z,98632.34
2023-01-13T20:20:10.758Z,98634.91
2023-01-13T20:22:41.397Z,98651.88
2023-01-13T20:25:09.433Z,98650.91
2023-01-13T20:27:37.488Z,98657.13
2023-01-13T20:30:09.377Z,98654.50
2023-01-13T20:32:37.238Z,98648.59
2023-01-13T20:35:04.985Z,98658.31
2023-01-13T20:37:31.960Z,98665.00
2023-01-13T20:40:01.564Z,98665.56
2023-01-13T20:42:39.649Z,98665.66
2023-01-13T20:45:07.304Z,98662.75
2023-01-13T20:47:34.421Z,98668.38
2023-01-13T20:50:01.373Z,98663.31
2023-01-13T20:52:28.596Z,98664.81
2023-01-13T20:54:55.533Z,98676.53
2023-01-13T20:57:23.140Z,98677.16
2023-01-13T20:59:50.136Z,98673.00
2023-01-13T21:02:17.944Z,98683.41
2023-01-13T21:04:44.876Z,98673.25
2023-01-13T21:07:11.885Z,98673.84
2023-01-13T21:09:38.827Z,98675.44
2023-01-13T21:12:25.196Z,98678.69
2023-01-13T21:15:10.867Z,98672.84
2023-01-13T21:17:56.143Z,98667.59
2023-01-13T21:20:23.658Z,98660.13
2023-01-13T21:22:50.652Z,98658.44
2023-01-13T21:25:19.473Z,98668.59
2023-01-13T21:27:46.734Z,98680.03
2023-01-13T21:30:15.456Z,98678.59
2023-01-13T21:32:44.407Z,98676.16
2023-01-13T21:35:12.952Z,98678.41
2023-01-13T21:37:42.295Z,98673.59
2023-01-13T21:40:12.659Z,98679.88
2023-01-13T21:42:58.256Z,98677.44
2023-01-13T21:45:44.217Z,98685.97
2023-01-13T21:48:11.446Z,98694.69
2023-01-13T21:50:39.137Z,98690.28
2023-01-13T21:53:07.822Z,98698.16
2023-01-13T21:55:36.676Z,98696.97
2023-01-13T21:58:14.530Z,98710.44
2023-01-13T22:00:43.809Z,98713.88
2023-01-13T22:03:12.946Z,98715.59
2023-01-13T22:05:40.213Z,98713.88
2023-01-13T22:08:07.957Z,98725.84
2023-01-13T22:10:35.742Z,98719.00
2023-01-13T22:13:23.306Z,98719.06
2023-01-13T22:15:50.298Z,98723.28
2023-01-13T22:18:20.417Z,98728.47
2023-01-13T22:20:48.692Z,98722.09
2023-01-13T22:23:15.685Z,98731.75
2023-01-13T22:25:42.640Z,98741.59
2023-01-13T22:28:13.619Z,98738.22
2023-01-13T22:30:40.865Z,98749.47
2023-01-13T22:33:07.823Z,98742.63
2023-01-13T22:35:35.137Z,98742.25
2023-01-13T22:38:02.120Z,98745.13
2023-01-13T22:40:29.106Z,98742.63
2023-01-13T22:42:56.407Z,98732.97
2023-01-13T22:45:23.381Z,98732.88
2023-01-13T22:47:50.346Z,98735.41
2023-01-13T22:50:20.870Z,98729.31
2023-01-13T22:52:47.950Z,98724.81
2023-01-13T22:55:14.941Z,98730.16
2023-01-13T22:57:47.730Z,98732.59
2023-01-13T23:00:19.224Z,98742.38
2023-01-13T23:02:46.903Z,98725.84
2023-01-13T23:05:14.030Z,98727.00
2023-01-13T23:07:41.483Z,98728.72
2023-01-13T23:10:09.325Z,98733.47
2023-01-13T23:12:36.391Z,98738.13
2023-01-13T23:15:04.423Z,98745.41
2023-01-13T23:17:31.668Z,98748.84
2023-01-13T23:19:58.698Z,98742.38
2023-01-13T23:22:25.713Z,98751.59
2023-01-13T23:24:52.656Z,98743.38
2023-01-13T23:27:19.625Z,98747.00
2023-01-13T23:29:46.651Z,98738.84
2023-01-13T23:32:13.602Z,98746.81
2023-01-13T23:34:40.530Z,98749.56
2023-01-13T23:37:07.466Z,98756.44
2023-01-13T23:39:34.402Z,98754.50
2023-01-13T23:42:01.829Z,98754.44
2023-01-13T23:44:29.429Z,98757.69
2023-01-13T23:46:56.812Z,98754.47
2023-01-13T23:49:24.074Z,98753.91
2023-01-13T23:51:52.321Z,98752.63
2023-01-13T23:54:20.010Z,98755.38
2023-01-13T23:56:49.471Z,98766.69
2023-01-13T23:59:16.524Z,98763.13
